createdAt,value
2018-10-03T00:00:11.395Z,1000.7
2018-10-03T00:01:12.138Z,1000.7
2018-10-03T00:02:12.847Z,1000.6
2018-10-03T00:03:13.552Z,1000.6
2018-10-03T00:04:14.279Z,1000.7
2018-10-03T00:05:15.002Z,1000.7
2018-10-03T00:06:15.711Z,1000.7
2018-10-03T00:07:16.442Z,1000.7
2018-10-03T00:08:17.163Z,1000.6
2018-10-03T00:09:17.897Z,1000.6
2018-10-03T00:10:18.620Z,1000.7
2018-10-03T00:11:19.336Z,1000.7
2018-10-03T00:12:20.048Z,1000.6
2018-10-03T00:13:20.779Z,1000.7
2018-10-03T00:14:21.533Z,1000.7
2018-10-03T00:15:22.264Z,1000.6
2018-10-03T00:16:22.998Z,1000.6
2018-10-03T00:17:23.769Z,1000.6
2018-10-03T00:18:24.547Z,1000.6
2018-10-03T00:19:25.635Z,1000.6
2018-10-03T00:20:27.379Z,1000.6
2018-10-03T00:21:28.537Z,1000.6
2018-10-03T00:22:29.687Z,1000.6
2018-10-03T00:23:30.533Z,1000.5
2018-10-03T00:24:31.678Z,1000.5
2018-10-03T00:25:32.702Z,1000.5
2018-10-03T00:26:33.428Z,1000.6
2018-10-03T00:27:35.542Z,1000.6
2018-10-03T00:28:35.970Z,1000.6
2018-10-03T00:29:37.136Z,1000.6
2018-10-03T00:30:37.912Z,1000.6
2018-10-03T00:31:38.772Z,1000.7
2018-10-03T00:32:39.541Z,1000.6
2018-10-03T00:33:40.385Z,1000.6
2018-10-03T00:34:41.119Z,1000.7
2018-10-03T00:35:41.839Z,1000.7
2018-10-03T00:36:42.561Z,1000.8
2018-10-03T00:37:43.291Z,1000.8
2018-10-03T00:38:44.008Z,1000.7
2018-10-03T00:39:45.015Z,1000.8
2018-10-03T00:40:45.733Z,1000.7
2018-10-03T00:41:46.695Z,1000.7
2018-10-03T00:42:47.453Z,1000.7
2018-10-03T00:43:48.165Z,1000.7
2018-10-03T00:44:48.878Z,1000.7
2018-10-03T00:45:49.604Z,1000.7
2018-10-03T00:46:50.316Z,1000.7
2018-10-03T00:47:51.075Z,1000.7
2018-10-03T00:48:51.807Z,1000.7
2018-10-03T00:49:52.525Z,1000.7
2018-10-03T00:50:53.238Z,1000.7
2018-10-03T00:51:53.969Z,1000.8
2018-10-03T00:52:54.985Z,1000.8
2018-10-03T00:53:55.689Z,1000.8
2018-10-03T00:54:56.432Z,1000.8
2018-10-03T00:55:57.149Z,1000.9
2018-10-03T00:56:57.868Z,1000.8
2018-10-03T00:57:58.635Z,1000.8
2018-10-03T00:58:59.598Z,1000.8
2018-10-03T01:00:00.307Z,1000.8
2018-10-03T01:01:01.030Z,1000.8
2018-10-03T01:02:01.739Z,1000.8
2018-10-03T01:03:02.466Z,1000.8
2018-10-03T01:04:03.191Z,1000.8
2018-10-03T01:05:03.912Z,1000.8
2018-10-03T01:06:04.647Z,1000.8
2018-10-03T01:07:05.372Z,1000.7
2018-10-03T01:08:06.142Z,1000.7
2018-10-03T01:09:06.865Z,1000.7
2018-10-03T01:10:07.841Z,1000.7
2018-10-03T01:11:08.563Z,1000.8
2018-10-03T01:12:09.279Z,1000.8
2018-10-03T01:13:10.020Z,1000.8
2018-10-03T01:14:10.737Z,1000.8
2018-10-03T01:15:11.480Z,1000.9
2018-10-03T01:16:12.208Z,1000.9
2018-10-03T01:17:12.932Z,1000.9
2018-10-03T01:18:13.898Z,1000.9
2018-10-03T01:19:14.621Z,1000.9
2018-10-03T01:20:15.432Z,1000.9
2018-10-03T01:21:16.404Z,1001.0
2018-10-03T01:22:17.125Z,1001.0
2018-10-03T01:23:17.850Z,1001.0
2018-10-03T01:24:18.565Z,1001.0
2018-10-03T01:25:19.601Z,1001.0
2018-10-03T01:26:20.333Z,1001.0
2018-10-03T01:27:21.049Z,1001.0
2018-10-03T01:28:21.768Z,1001.0
2018-10-03T01:29:22.480Z,1001.0
2018-10-03T01:30:23.446Z,1001.0
2018-10-03T01:31:24.189Z,1001.0
2018-10-03T01:32:24.930Z,1001.0
2018-10-03T01:33:25.653Z,1001.0
2018-10-03T01:34:26.386Z,1001.0
2018-10-03T01:35:27.096Z,1000.9
2018-10-03T01:36:27.807Z,1001.0
2018-10-03T01:37:28.531Z,1001.1
2018-10-03T01:38:29.359Z,1001.0
2018-10-03T01:39:29.978Z,1001.0
2018-10-03T01:40:30.699Z,1001.0
2018-10-03T01:41:31.407Z,1001.1
2018-10-03T01:42:32.122Z,1001.1
2018-10-03T01:43:33.098Z,1001.1
2018-10-03T01:44:33.812Z,1001.1
2018-10-03T01:45:34.542Z,1001.1
2018-10-03T01:46:35.260Z,1001.1
2018-10-03T01:47:36.034Z,1001.0
2018-10-03T01:48:36.777Z,1001.1
2018-10-03T01:49:37.485Z,1001.0
2018-10-03T01:50:38.212Z,1001.1
2018-10-03T01:51:38.935Z,1001.0
2018-10-03T01:52:39.710Z,1001.1
2018-10-03T01:53:40.421Z,1001.0
2018-10-03T01:54:41.149Z,1001.1
2018-10-03T01:55:41.867Z,1001.1
2018-10-03T01:56:42.595Z,1001.1
2018-10-03T01:57:43.304Z,1001.1
2018-10-03T01:58:44.272Z,1001.1
2018-10-03T01:59:44.991Z,1001.1
2018-10-03T02:00:45.720Z,1001.1
2018-10-03T02:01:46.434Z,1001.1
2018-10-03T02:02:47.154Z,1001.1
2018-10-03T02:03:47.894Z,1001.1
2018-10-03T02:04:48.607Z,1001.2
2018-10-03T02:05:49.326Z,1001.2
2018-10-03T02:06:50.053Z,1001.1
2018-10-03T02:07:50.775Z,1001.1
2018-10-03T02:08:51.496Z,1001.1
2018-10-03T02:09:52.225Z,1001.1
2018-10-03T02:10:52.933Z,1001.1
2018-10-03T02:11:53.906Z,1001.1
2018-10-03T02:12:54.907Z,1001.2
2018-10-03T02:13:55.614Z,1001.1
2018-10-03T02:14:56.340Z,1001.1
2018-10-03T02:15:57.053Z,1001.1
2018-10-03T02:16:57.772Z,1001.1
2018-10-03T02:17:58.744Z,1001.1
2018-10-03T02:18:59.455Z,1001.1
2018-10-03T02:20:00.185Z,1001.1
2018-10-03T02:21:00.889Z,1001.1
2018-10-03T02:22:01.619Z,1001.1
2018-10-03T02:23:02.335Z,1001.2
2018-10-03T02:24:03.053Z,1001.1
2018-10-03T02:25:03.762Z,1001.1
2018-10-03T02:26:04.475Z,1001.1
2018-10-03T02:27:05.195Z,1001.1
2018-10-03T02:28:05.914Z,1001.2
2018-10-03T02:29:06.630Z,1001.2
2018-10-03T02:30:07.337Z,1001.2
2018-10-03T02:31:08.070Z,1001.2
2018-10-03T02:32:08.797Z,1001.2
2018-10-03T02:33:09.509Z,1001.2
2018-10-03T02:34:10.294Z,1001.2
2018-10-03T02:35:11.052Z,1001.2
2018-10-03T02:36:11.757Z,1001.1
2018-10-03T02:37:12.496Z,1001.1
2018-10-03T02:38:13.217Z,1001.1
2018-10-03T02:39:13.940Z,1001.1
2018-10-03T02:40:14.656Z,1001.1
2018-10-03T02:41:15.626Z,1001.1
2018-10-03T02:42:16.356Z,1001.1
2018-10-03T02:43:17.067Z,1001.1
2018-10-03T02:44:17.799Z,1001.1
2018-10-03T02:45:18.538Z,1001.2
2018-10-03T02:46:19.252Z,1001.2
2018-10-03T02:47:20.235Z,1001.2
2018-10-03T02:48:20.985Z,1001.2
2018-10-03T02:49:21.718Z,1001.3
2018-10-03T02:50:22.451Z,1001.3
2018-10-03T02:51:23.226Z,1001.3
2018-10-03T02:52:23.942Z,1001.3
2018-10-03T02:53:24.662Z,1001.3
2018-10-03T02:54:25.403Z,1001.3
2018-10-03T02:55:26.112Z,1001.3
2018-10-03T02:56:26.846Z,1001.3
2018-10-03T02:57:27.551Z,1001.4
2018-10-03T02:58:28.284Z,1001.3
2018-10-03T02:59:29.003Z,1001.4
2018-10-03T03:00:29.728Z,1001.3
2018-10-03T03:01:30.517Z,1001.3
2018-10-03T03:02:31.223Z,1001.4
2018-10-03T03:03:32.209Z,1001.4
2018-10-03T03:04:32.929Z,1001.3
2018-10-03T03:05:33.651Z,1001.4
2018-10-03T03:06:34.419Z,1001.4
2018-10-03T03:07:35.152Z,1001.4
2018-10-03T03:08:36.194Z,1001.4
2018-10-03T03:09:36.843Z,1001.4
2018-10-03T03:10:37.557Z,1001.3
2018-10-03T03:11:38.288Z,1001.4
2018-10-03T03:12:39.052Z,1001.3
2018-10-03T03:13:39.769Z,1001.4
2018-10-03T03:14:40.502Z,1001.4
2018-10-03T03:15:41.466Z,1001.3
2018-10-03T03:16:42.187Z,1001.4
2018-10-03T03:17:42.966Z,1001.4
2018-10-03T03:18:43.694Z,1001.3
2018-10-03T03:19:44.405Z,1001.3
2018-10-03T03:20:45.131Z,1001.3
2018-10-03T03:21:45.855Z,1001.3
2018-10-03T03:22:46.613Z,1001.3
2018-10-03T03:23:47.335Z,1001.4
2018-10-03T03:24:48.059Z,1001.4
2018-10-03T03:25:48.779Z,1001.3
2018-10-03T03:26:49.748Z,1001.3
2018-10-03T03:27:50.508Z,1001.3
2018-10-03T03:28:51.240Z,1001.3
2018-10-03T03:29:51.952Z,1001.4
2018-10-03T03:30:52.674Z,1001.3
2018-10-03T03:31:53.396Z,1001.3
2018-10-03T03:32:54.500Z,1001.3
2018-10-03T03:33:55.209Z,1001.4
2018-10-03T03:34:55.938Z,1001.4
2018-10-03T03:35:56.662Z,1001.4
2018-10-03T03:36:57.370Z,1001.4
2018-10-03T03:37:58.152Z,1001.4
2018-10-03T03:38:58.868Z,1001.5
2018-10-03T03:39:59.584Z,1001.5
2018-10-03T03:41:00.302Z,1001.5
2018-10-03T03:42:01.032Z,1001.5
2018-10-03T03:43:01.797Z,1001.4
2018-10-03T03:44:02.515Z,1001.5
2018-10-03T03:45:03.234Z,1001.6
2018-10-03T03:46:03.971Z,1001.6
2018-10-03T03:47:04.679Z,1001.6
2018-10-03T03:48:05.458Z,1001.6
2018-10-03T03:49:06.179Z,1001.6
2018-10-03T03:50:06.887Z,1001.6
2018-10-03T03:51:07.857Z,1001.7
2018-10-03T03:52:08.589Z,1001.6
2018-10-03T03:53:09.617Z,1001.6
2018-10-03T03:54:10.341Z,1001.6
2018-10-03T03:55:11.055Z,1001.7
2018-10-03T03:56:12.049Z,1001.6
2018-10-03T03:57:12.768Z,1001.6
2018-10-03T03:58:13.540Z,1001.6
2018-10-03T03:59:14.264Z,1001.7
2018-10-03T04:00:14.980Z,1001.6
2018-10-03T04:01:15.720Z,1001.7
2018-10-03T04:02:16.455Z,1001.7
2018-10-03T04:03:17.221Z,1001.7
2018-10-03T04:04:17.971Z,1001.6
2018-10-03T04:05:18.693Z,1001.7
2018-10-03T04:06:19.412Z,1001.7
2018-10-03T04:07:20.149Z,1001.7
2018-10-03T04:08:20.881Z,1001.7
2018-10-03T04:09:21.641Z,1001.7
2018-10-03T04:10:22.360Z,1001.7
2018-10-03T04:11:23.080Z,1001.8
2018-10-03T04:12:23.799Z,1001.7
2018-10-03T04:13:24.516Z,1001.8
2018-10-03T04:14:25.297Z,1001.7
2018-10-03T04:15:26.265Z,1001.7
2018-10-03T04:16:26.978Z,1001.8
2018-10-03T04:17:27.702Z,1001.7
2018-10-03T04:18:28.437Z,1001.8
2018-10-03T04:19:29.162Z,1001.8
2018-10-03T04:20:29.879Z,1001.7
2018-10-03T04:21:30.605Z,1001.7
2018-10-03T04:22:31.313Z,1001.7
2018-10-03T04:23:32.039Z,1001.8
2018-10-03T04:24:32.780Z,1001.8
2018-10-03T04:25:33.507Z,1001.8
2018-10-03T04:26:34.231Z,1001.8
2018-10-03T04:27:34.949Z,1001.8
2018-10-03T04:28:35.665Z,1001.9
2018-10-03T04:29:36.638Z,1001.9
2018-10-03T04:30:37.669Z,1001.9
2018-10-03T04:31:38.390Z,1001.9
2018-10-03T04:32:39.118Z,1001.9
2018-10-03T04:33:39.843Z,1001.9
2018-10-03T04:34:40.582Z,1002.0
2018-10-03T04:35:41.371Z,1002.0
2018-10-03T04:36:42.042Z,1001.9
2018-10-03T04:37:42.803Z,1001.9
2018-10-03T04:38:43.530Z,1002.0
2018-10-03T04:39:44.270Z,1002.0
2018-10-03T04:40:44.983Z,1002.0
2018-10-03T04:41:45.708Z,1002.0
2018-10-03T04:42:46.679Z,1002.1
2018-10-03T04:43:47.401Z,1002.1
2018-10-03T04:44:48.120Z,1002.0
2018-10-03T04:45:49.085Z,1002.1
2018-10-03T04:46:49.787Z,1002.1
2018-10-03T04:47:50.501Z,1002.1
2018-10-03T04:48:51.274Z,1002.1
2018-10-03T04:49:51.991Z,1002.1
2018-10-03T04:50:52.719Z,1002.1
2018-10-03T04:51:53.445Z,1002.1
2018-10-03T04:52:54.177Z,1002.1
2018-10-03T04:53:54.893Z,1002.1
2018-10-03T04:54:55.617Z,1002.2
2018-10-03T04:55:56.339Z,1002.2
2018-10-03T04:56:57.063Z,1002.2
2018-10-03T04:57:58.056Z,1002.1
2018-10-03T04:58:58.766Z,1002.2
2018-10-03T04:59:59.478Z,1002.1
2018-10-03T05:01:00.199Z,1002.1
2018-10-03T05:02:00.922Z,1002.2
2018-10-03T05:03:01.661Z,1002.2
2018-10-03T05:04:02.387Z,1002.2
2018-10-03T05:05:03.164Z,1002.2
2018-10-03T05:06:03.874Z,1002.2
2018-10-03T05:07:04.588Z,1002.2
2018-10-03T05:08:05.311Z,1002.2
2018-10-03T05:09:06.027Z,1002.2
2018-10-03T05:10:06.758Z,1002.3
2018-10-03T05:11:07.521Z,1002.3
2018-10-03T05:12:08.204Z,1002.4
2018-10-03T05:13:08.925Z,1002.3
2018-10-03T05:14:09.653Z,1002.3
2018-10-03T05:15:10.417Z,1002.4
2018-10-03T05:16:11.149Z,1002.4
2018-10-03T05:17:11.866Z,1002.4
2018-10-03T05:18:12.597Z,1002.4
2018-10-03T05:19:13.323Z,1002.4
2018-10-03T05:20:14.039Z,1002.5
2018-10-03T05:21:15.021Z,1002.5
2018-10-03T05:22:15.988Z,1002.5
2018-10-03T05:23:16.763Z,1002.5
2018-10-03T05:24:17.479Z,1002.5
2018-10-03T05:25:18.223Z,1002.5
2018-10-03T05:26:18.952Z,1002.6
2018-10-03T05:27:19.680Z,1002.6
2018-10-03T05:28:20.397Z,1002.6
2018-10-03T05:29:21.376Z,1002.6
2018-10-03T05:30:22.087Z,1002.6
2018-10-03T05:31:22.820Z,1002.7
2018-10-03T05:32:23.534Z,1002.7
2018-10-03T05:33:24.348Z,1002.7
2018-10-03T05:34:25.006Z,1002.7
2018-10-03T05:35:25.723Z,1002.8
2018-10-03T05:36:26.451Z,1002.8
2018-10-03T05:37:27.170Z,1002.9
2018-10-03T05:38:28.145Z,1002.8
2018-10-03T05:39:28.890Z,1002.8
2018-10-03T05:40:29.582Z,1002.9
2018-10-03T05:41:30.308Z,1002.9
2018-10-03T05:42:31.032Z,1002.9
2018-10-03T05:43:31.767Z,1002.9
2018-10-03T05:44:32.529Z,1003.0
2018-10-03T05:45:33.263Z,1003.0
2018-10-03T05:46:33.984Z,1003.0
2018-10-03T05:47:34.715Z,1003.0
2018-10-03T05:48:35.436Z,1003.1
2018-10-03T05:49:36.151Z,1003.1
2018-10-03T05:50:36.876Z,1003.1
2018-10-03T05:51:37.637Z,1003.1
2018-10-03T05:52:38.363Z,1003.1
2018-10-03T05:53:39.083Z,1003.1
2018-10-03T05:54:40.125Z,1003.1
2018-10-03T05:55:40.793Z,1003.1
2018-10-03T05:56:41.576Z,1003.1
2018-10-03T05:57:42.317Z,1003.1
2018-10-03T05:58:43.032Z,1003.1
2018-10-03T05:59:43.761Z,1003.1
2018-10-03T06:00:44.497Z,1003.1
2018-10-03T06:01:45.228Z,1003.1
2018-10-03T06:02:45.973Z,1003.2
2018-10-03T06:03:46.681Z,1003.2
2018-10-03T06:04:47.400Z,1003.2
2018-10-03T06:05:48.121Z,1003.2
2018-10-03T06:06:48.896Z,1003.2
2018-10-03T06:07:49.616Z,1003.2
2018-10-03T06:08:50.338Z,1003.3
2018-10-03T06:09:51.069Z,1003.3
2018-10-03T06:10:51.798Z,1003.3
2018-10-03T06:11:52.823Z,1003.3
2018-10-03T06:12:53.548Z,1003.3
2018-10-03T06:13:54.654Z,1003.3
2018-10-03T06:14:55.378Z,1003.3
2018-10-03T06:15:56.106Z,1003.3
2018-10-03T06:16:56.827Z,1003.3
2018-10-03T06:17:57.556Z,1003.3
2018-10-03T06:18:58.286Z,1003.4
2018-10-03T06:19:59.013Z,1003.4
2018-10-03T06:20:59.986Z,1003.4
2018-10-03T06:22:00.716Z,1003.4
2018-10-03T06:23:01.430Z,1003.4
2018-10-03T06:24:02.173Z,1003.4
2018-10-03T06:25:02.899Z,1003.4
2018-10-03T06:26:03.627Z,1003.4
2018-10-03T06:27:04.611Z,1003.4
2018-10-03T06:28:05.404Z,1003.4
2018-10-03T06:29:06.119Z,1003.4
2018-10-03T06:30:06.833Z,1003.5
2018-10-03T06:31:07.581Z,1003.5
2018-10-03T06:32:08.363Z,1003.6
2018-10-03T06:33:09.044Z,1003.6
2018-10-03T06:34:09.778Z,1003.6
2018-10-03T06:35:10.499Z,1003.6
2018-10-03T06:36:11.237Z,1003.7
2018-10-03T06:37:11.955Z,1003.7
2018-10-03T06:38:12.688Z,1003.7
2018-10-03T06:39:13.415Z,1003.7
2018-10-03T06:40:14.437Z,1003.7
2018-10-03T06:41:15.098Z,1003.7
2018-10-03T06:42:15.816Z,1003.7
2018-10-03T06:43:16.803Z,1003.7
2018-10-03T06:44:17.534Z,1003.8
2018-10-03T06:45:18.275Z,1003.8
2018-10-03T06:46:19.253Z,1003.8
2018-10-03T06:47:20.017Z,1003.8
2018-10-03T06:48:20.746Z,1003.8
2018-10-03T06:49:21.464Z,1003.9
2018-10-03T06:50:22.196Z,1003.9
2018-10-03T06:51:22.915Z,1003.9
2018-10-03T06:52:23.689Z,1003.9
2018-10-03T06:53:24.428Z,1003.9
2018-10-03T06:54:25.151Z,1004.0
2018-10-03T06:55:25.875Z,1004.0
2018-10-03T06:56:26.596Z,1004.0
2018-10-03T06:57:27.374Z,1004.0
2018-10-03T06:58:28.094Z,1004.0
2018-10-03T06:59:28.830Z,1004.0
2018-10-03T07:00:29.557Z,1004.0
2018-10-03T07:01:30.297Z,1004.0
2018-10-03T07:02:31.025Z,1004.1
2018-10-03T07:03:31.746Z,1004.0
2018-10-03T07:04:32.467Z,1004.0
2018-10-03T07:05:33.200Z,1004.1
2018-10-03T07:06:33.930Z,1004.2
2018-10-03T07:07:34.901Z,1004.2
2018-10-03T07:08:35.636Z,1004.2
2018-10-03T07:09:36.357Z,1004.2
2018-10-03T07:10:37.142Z,1004.2
2018-10-03T07:11:37.871Z,1004.2
2018-10-03T07:12:38.594Z,1004.3
2018-10-03T07:13:39.330Z,1004.3
2018-10-03T07:14:40.048Z,1004.3
2018-10-03T07:15:41.014Z,1004.4
2018-10-03T07:16:41.740Z,1004.4
2018-10-03T07:17:42.460Z,1004.4
2018-10-03T07:18:43.188Z,1004.4
2018-10-03T07:19:43.917Z,1004.4
2018-10-03T07:20:44.635Z,1004.4
2018-10-03T07:21:45.363Z,1004.4
2018-10-03T07:22:46.088Z,1004.5
2018-10-03T07:23:46.817Z,1004.4
2018-10-03T07:24:47.602Z,1004.4
2018-10-03T07:25:48.339Z,1004.5
2018-10-03T07:26:49.059Z,1004.4
2018-10-03T07:27:49.784Z,1004.5
2018-10-03T07:28:50.509Z,1004.5
2018-10-03T07:29:51.234Z,1004.5
2018-10-03T07:30:51.957Z,1004.5
2018-10-03T07:31:52.950Z,1004.5
2018-10-03T07:32:53.671Z,1004.6
2018-10-03T07:33:54.645Z,1004.5
2018-10-03T07:34:55.412Z,1004.6
2018-10-03T07:35:56.151Z,1004.6
2018-10-03T07:36:56.873Z,1004.6
2018-10-03T07:37:57.608Z,1004.6
2018-10-03T07:38:58.328Z,1004.7
2018-10-03T07:39:59.067Z,1004.6
2018-10-03T07:40:59.798Z,1004.7
2018-10-03T07:42:00.538Z,1004.7
2018-10-03T07:43:01.274Z,1004.6
2018-10-03T07:44:02.070Z,1004.7
2018-10-03T07:45:02.770Z,1004.7
2018-10-03T07:46:03.489Z,1004.7
2018-10-03T07:47:04.227Z,1004.7
2018-10-03T07:48:05.036Z,1004.7
2018-10-03T07:49:05.711Z,1004.7
2018-10-03T07:50:06.485Z,1004.7
2018-10-03T07:51:07.208Z,1004.7
2018-10-03T07:52:07.937Z,1004.7
2018-10-03T07:53:08.679Z,1004.8
2018-10-03T07:54:09.430Z,1004.7
2018-10-03T07:55:10.172Z,1004.7
2018-10-03T07:56:10.933Z,1004.8
2018-10-03T07:57:11.620Z,1004.9
2018-10-03T07:58:12.603Z,1004.9
2018-10-03T07:59:13.328Z,1004.9
2018-10-03T08:00:14.047Z,1004.9
2018-10-03T08:01:14.794Z,1004.9
2018-10-03T08:02:15.516Z,1005.0
2018-10-03T08:03:16.256Z,1005.0
2018-10-03T08:04:16.991Z,1005.1
2018-10-03T08:05:17.727Z,1005.1
2018-10-03T08:06:18.921Z,1005.1
2018-10-03T08:07:20.314Z,1005.1
2018-10-03T08:08:21.044Z,1005.2
2018-10-03T08:09:21.773Z,1005.1
2018-10-03T08:10:22.502Z,1005.1
2018-10-03T08:11:23.475Z,1005.2
2018-10-03T08:12:24.201Z,1005.3
2018-10-03T08:13:24.930Z,1005.3
2018-10-03T08:14:25.660Z,1005.3
2018-10-03T08:15:26.377Z,1005.3
2018-10-03T08:16:27.106Z,1005.3
2018-10-03T08:17:27.866Z,1005.3
2018-10-03T08:18:28.555Z,1005.3
2018-10-03T08:19:29.284Z,1005.3
2018-10-03T08:20:30.003Z,1005.3
2018-10-03T08:21:30.747Z,1005.3
2018-10-03T08:22:31.472Z,1005.3
2018-10-03T08:23:32.200Z,1005.4
2018-10-03T08:24:32.973Z,1005.3
2018-10-03T08:25:33.661Z,1005.4
2018-10-03T08:26:34.382Z,1005.4
2018-10-03T08:27:35.371Z,1005.3
2018-10-03T08:28:36.103Z,1005.4
2018-10-03T08:29:36.823Z,1005.5
2018-10-03T08:30:37.542Z,1005.4
2018-10-03T08:31:38.527Z,1005.4
2018-10-03T08:32:39.332Z,1005.4
2018-10-03T08:33:40.026Z,1005.4
2018-10-03T08:34:40.773Z,1005.5
2018-10-03T08:35:41.507Z,1005.5
2018-10-03T08:36:42.491Z,1005.5
2018-10-03T08:37:43.465Z,1005.5
2018-10-03T08:38:44.252Z,1005.5
2018-10-03T08:39:44.934Z,1005.5
2018-10-03T08:40:46.292Z,1005.6
2018-10-03T08:41:47.263Z,1005.7
2018-10-03T08:42:47.993Z,1005.6
2018-10-03T08:43:48.738Z,1005.6
2018-10-03T08:44:49.457Z,1005.6
2018-10-03T08:45:50.192Z,1005.7
2018-10-03T08:46:50.920Z,1005.7
2018-10-03T08:47:51.653Z,1005.7
2018-10-03T08:48:52.379Z,1005.7
2018-10-03T08:49:53.110Z,1005.7
2018-10-03T08:50:53.845Z,1005.7
2018-10-03T08:51:54.906Z,1005.8
2018-10-03T08:52:55.613Z,1005.8
2018-10-03T08:53:56.342Z,1005.8
2018-10-03T08:54:57.063Z,1005.8
2018-10-03T08:55:57.789Z,1005.8
2018-10-03T08:56:58.529Z,1005.7
2018-10-03T08:57:59.535Z,1005.8
2018-10-03T08:59:00.231Z,1005.8
2018-10-03T09:00:00.959Z,1005.9
2018-10-03T09:01:01.743Z,1005.9
2018-10-03T09:02:02.481Z,1005.9
2018-10-03T09:03:03.527Z,1006.0
2018-10-03T09:04:04.292Z,1006.0
2018-10-03T09:05:05.007Z,1006.0
2018-10-03T09:06:06.030Z,1006.0
2018-10-03T09:07:07.013Z,1006.0
2018-10-03T09:08:07.997Z,1006.0
2018-10-03T09:09:08.740Z,1006.0
2018-10-03T09:10:09.460Z,1006.0
2018-10-03T09:11:10.208Z,1006.0
2018-10-03T09:12:10.952Z,1006.0
2018-10-03T09:13:11.942Z,1006.0
2018-10-03T09:14:12.674Z,1006.0
2018-10-03T09:15:13.415Z,1005.9
2018-10-03T09:16:14.159Z,1005.9
2018-10-03T09:17:14.928Z,1006.0
2018-10-03T09:18:15.668Z,1006.1
2018-10-03T09:19:16.657Z,1006.2
2018-10-03T09:20:17.637Z,1006.1
2018-10-03T09:21:18.382Z,1006.1
2018-10-03T09:22:19.076Z,1006.1
2018-10-03T09:23:19.830Z,1006.1
2018-10-03T09:24:20.569Z,1006.1
2018-10-03T09:25:21.562Z,1006.1
2018-10-03T09:26:22.299Z,1006.2
2018-10-03T09:27:23.182Z,1006.2
2018-10-03T09:28:24.034Z,1006.3
2018-10-03T09:29:24.736Z,1006.3
2018-10-03T09:30:25.468Z,1006.4
2018-10-03T09:31:26.201Z,1006.3
2018-10-03T09:32:26.926Z,1006.4
2018-10-03T09:33:27.716Z,1006.4
2018-10-03T09:34:28.714Z,1006.4
2018-10-03T09:35:29.442Z,1006.4
2018-10-03T09:36:30.163Z,1006.4
2018-10-03T09:37:31.143Z,1006.4
2018-10-03T09:38:31.870Z,1006.4
2018-10-03T09:39:32.647Z,1006.5
2018-10-03T09:40:33.322Z,1006.4
2018-10-03T09:41:34.071Z,1006.4
2018-10-03T09:42:34.798Z,1006.4
2018-10-03T09:43:35.522Z,1006.4
2018-10-03T09:44:36.559Z,1006.4
2018-10-03T09:45:37.542Z,1006.4
2018-10-03T09:46:38.264Z,1006.5
2018-10-03T09:47:38.987Z,1006.5
2018-10-03T09:48:39.776Z,1006.5
2018-10-03T09:49:40.503Z,1006.5
2018-10-03T09:50:41.238Z,1006.6
2018-10-03T09:51:41.993Z,1006.6
2018-10-03T09:52:42.976Z,1006.6
2018-10-03T09:53:43.952Z,1006.6
2018-10-03T09:54:44.750Z,1006.6
2018-10-03T09:55:45.462Z,1006.6
2018-10-03T09:56:46.222Z,1006.7
2018-10-03T09:57:46.959Z,1006.7
2018-10-03T09:58:47.723Z,1006.7
2018-10-03T09:59:48.461Z,1006.7
2018-10-03T10:00:49.242Z,1006.7
2018-10-03T10:01:49.927Z,1006.7
2018-10-03T10:02:50.669Z,1006.8
2018-10-03T10:03:51.389Z,1006.8
2018-10-03T10:04:52.126Z,1006.8
2018-10-03T10:05:52.883Z,1006.8
2018-10-03T10:06:53.584Z,1006.8
2018-10-03T10:07:54.323Z,1006.9
2018-10-03T10:08:55.052Z,1006.9
2018-10-03T10:09:55.777Z,1006.9
2018-10-03T10:10:56.506Z,1006.9
2018-10-03T10:11:57.236Z,1006.9
2018-10-03T10:12:57.963Z,1006.8
2018-10-03T10:13:58.700Z,1006.8
2018-10-03T10:14:59.422Z,1006.8
2018-10-03T10:16:00.159Z,1006.8
2018-10-03T10:17:00.925Z,1006.9
2018-10-03T10:18:01.655Z,1006.8
2018-10-03T10:19:02.386Z,1006.9
2018-10-03T10:20:03.124Z,1006.9
2018-10-03T10:21:03.844Z,1006.8
2018-10-03T10:22:04.632Z,1006.8
2018-10-03T10:23:05.357Z,1006.8
2018-10-03T10:24:06.111Z,1006.8
2018-10-03T10:25:06.831Z,1006.8
2018-10-03T10:26:07.557Z,1006.9
2018-10-03T10:27:08.291Z,1006.8
2018-10-03T10:28:09.025Z,1006.9
2018-10-03T10:29:09.757Z,1006.9
2018-10-03T10:30:10.496Z,1006.9
2018-10-03T10:31:11.470Z,1006.8
2018-10-03T10:32:12.240Z,1006.9
2018-10-03T10:33:12.981Z,1006.9
2018-10-03T10:34:13.671Z,1006.9
2018-10-03T10:35:14.401Z,1006.9
2018-10-03T10:36:15.124Z,1006.9
2018-10-03T10:37:15.916Z,1006.9
2018-10-03T10:38:16.662Z,1007.0
2018-10-03T10:39:18.539Z,1007.0
2018-10-03T10:40:19.497Z,1007.1
2018-10-03T10:41:20.313Z,1007.0
2018-10-03T10:42:20.895Z,1007.0
2018-10-03T10:43:21.972Z,1007.0
2018-10-03T10:44:22.939Z,1007.0
2018-10-03T10:45:23.662Z,1007.0
2018-10-03T10:46:24.400Z,1007.1
2018-10-03T10:47:25.129Z,1007.1
2018-10-03T10:48:25.860Z,1007.1
2018-10-03T10:49:26.614Z,1007.1
2018-10-03T10:50:28.495Z,1007.1
2018-10-03T10:51:29.372Z,1007.1
2018-10-03T10:52:30.097Z,1007.1
2018-10-03T10:53:30.829Z,1007.1
2018-10-03T10:54:31.553Z,1007.1
2018-10-03T10:55:32.292Z,1007.1
2018-10-03T10:56:33.013Z,1007.1
2018-10-03T10:57:34.414Z,1007.1
2018-10-03T10:58:35.402Z,1007.1
2018-10-03T10:59:36.397Z,1007.1
2018-10-03T11:00:37.115Z,1007.2
2018-10-03T11:01:37.853Z,1007.2
2018-10-03T11:02:38.585Z,1007.1
2018-10-03T11:03:39.357Z,1007.1
2018-10-03T11:04:40.090Z,1007.1
2018-10-03T11:05:40.825Z,1007.1
2018-10-03T11:06:41.570Z,1007.1
2018-10-03T11:07:42.282Z,1007.1
2018-10-03T11:08:43.005Z,1007.1
2018-10-03T11:09:43.729Z,1007.1
2018-10-03T11:10:44.458Z,1007.2
2018-10-03T11:11:45.494Z,1007.2
2018-10-03T11:12:46.221Z,1007.2
2018-10-03T11:13:46.985Z,1007.2
2018-10-03T11:14:47.723Z,1007.3
2018-10-03T11:15:48.721Z,1007.2
2018-10-03T11:16:49.458Z,1007.3
2018-10-03T11:17:50.187Z,1007.2
2018-10-03T11:18:50.914Z,1007.3
2018-10-03T11:19:51.637Z,1007.3
2018-10-03T11:20:52.366Z,1007.3
2018-10-03T11:21:53.110Z,1007.2
2018-10-03T11:22:53.842Z,1007.3
2018-10-03T11:23:54.704Z,1007.2
2018-10-03T11:24:55.562Z,1007.3
2018-10-03T11:25:56.031Z,1007.2
2018-10-03T11:26:56.785Z,1007.3
2018-10-03T11:27:57.504Z,1007.3
2018-10-03T11:28:58.236Z,1007.3
2018-10-03T11:29:58.968Z,1007.3
2018-10-03T11:30:59.705Z,1007.3
2018-10-03T11:32:00.506Z,1007.3
2018-10-03T11:33:01.487Z,1007.3
2018-10-03T11:34:02.220Z,1007.3
2018-10-03T11:35:02.992Z,1007.4
2018-10-03T11:36:03.736Z,1007.4
2018-10-03T11:37:04.473Z,1007.3
2018-10-03T11:38:05.555Z,1007.4
2018-10-03T11:39:06.221Z,1007.4
2018-10-03T11:40:07.015Z,1007.4
2018-10-03T11:41:07.997Z,1007.4
2018-10-03T11:42:08.728Z,1007.4
2018-10-03T11:43:09.723Z,1007.4
2018-10-03T11:44:10.445Z,1007.4
2018-10-03T11:45:11.223Z,1007.4
2018-10-03T11:46:11.956Z,1007.4
2018-10-03T11:47:12.930Z,1007.4
2018-10-03T11:48:13.664Z,1007.4
2018-10-03T11:49:15.362Z,1007.4
2018-10-03T11:50:16.383Z,1007.4
2018-10-03T11:51:17.116Z,1007.4
2018-10-03T11:52:17.860Z,1007.4
2018-10-03T11:53:18.860Z,1007.4
2018-10-03T11:54:19.669Z,1007.5
2018-10-03T11:55:20.434Z,1007.5
2018-10-03T11:56:21.176Z,1007.5
2018-10-03T11:57:21.923Z,1007.4
2018-10-03T11:58:23.417Z,1007.5
2018-10-03T11:59:24.205Z,1007.5
2018-10-03T12:00:24.889Z,1007.5
2018-10-03T12:01:25.674Z,1007.6
2018-10-03T12:02:26.387Z,1007.5
2018-10-03T12:03:27.237Z,1007.5
2018-10-03T12:04:27.852Z,1007.5
2018-10-03T12:05:28.569Z,1007.5
2018-10-03T12:06:29.584Z,1007.5
2018-10-03T12:07:30.280Z,1007.5
2018-10-03T12:08:31.020Z,1007.5
2018-10-03T12:09:31.770Z,1007.5
2018-10-03T12:10:32.545Z,1007.5
2018-10-03T12:11:34.024Z,1007.5
2018-10-03T12:12:35.054Z,1007.5
2018-10-03T12:13:35.818Z,1007.5
2018-10-03T12:14:36.515Z,1007.5
2018-10-03T12:15:37.260Z,1007.6
2018-10-03T12:16:37.995Z,1007.4
2018-10-03T12:17:38.728Z,1007.5
2018-10-03T12:18:39.458Z,1007.5
2018-10-03T12:19:40.192Z,1007.5
2018-10-03T12:20:40.920Z,1007.5
2018-10-03T12:21:41.645Z,1007.4
2018-10-03T12:22:42.421Z,1007.5
2018-10-03T12:23:43.155Z,1007.5
2018-10-03T12:24:43.880Z,1007.5
2018-10-03T12:25:44.610Z,1007.5
2018-10-03T12:26:45.346Z,1007.6
2018-10-03T12:27:46.127Z,1007.5
2018-10-03T12:28:47.142Z,1007.6
2018-10-03T12:29:47.882Z,1007.6
2018-10-03T12:30:48.602Z,1007.6
2018-10-03T12:31:49.331Z,1007.6
2018-10-03T12:32:50.391Z,1007.6
2018-10-03T12:33:51.206Z,1007.6
2018-10-03T12:34:51.854Z,1007.6
2018-10-03T12:35:52.569Z,1007.6
2018-10-03T12:36:53.314Z,1007.7
2018-10-03T12:37:54.048Z,1007.7